createdAt,value
2019-03-29T00:00:49.373Z,10.73
2019-03-29T00:05:56.717Z,11.03
2019-03-29T00:11:03.652Z,10.33
2019-03-29T00:16:11.807Z,11.73
2019-03-29T00:21:19.689Z,11.20
2019-03-29T00:26:54.712Z,12.80
2019-03-29T00:32:44.162Z,10.40
2019-03-29T00:37:53.851Z,12.73
2019-03-29T00:43:00.114Z,14.07
2019-03-29T00:48:06.742Z,11.43
2019-03-29T00:53:13.280Z,11.67
2019-03-29T00:58:21.307Z,11.20
2019-03-29T01:03:29.162Z,13.57
2019-03-29T01:08:36.173Z,14.10
2019-03-29T01:13:44.032Z,10.27
2019-03-29T01:18:52.209Z,12.43
2019-03-29T01:23:59.883Z,12.23
2019-03-29T01:29:07.772Z,18.53
2019-03-29T01:34:17.005Z,11.57
2019-03-29T01:39:25.155Z,12.60
2019-03-29T01:44:33.174Z,13.20
2019-03-29T01:49:41.990Z,12.57
2019-03-29T01:54:48.811Z,12.60
2019-03-29T01:59:57.188Z,15.00
2019-03-29T02:05:05.473Z,13.83
2019-03-29T02:10:12.512Z,14.10
2019-03-29T02:15:19.119Z,13.10
2019-03-29T02:20:25.836Z,12.63
2019-03-29T02:25:33.156Z,11.13
2019-03-29T02:30:40.965Z,16.17
2019-03-29T02:35:47.309Z,11.83
2019-03-29T02:40:54.336Z,14.63
2019-03-29T02:46:03.876Z,13.23
2019-03-29T02:51:11.350Z,14.23
2019-03-29T02:56:18.881Z,14.93
2019-03-29T03:01:26.249Z,15.63
2019-03-29T03:06:33.427Z,16.30
2019-03-29T03:11:40.947Z,11.83
2019-03-29T03:16:48.802Z,20.33
2019-03-29T03:21:57.049Z,13.00
2019-03-29T03:27:04.622Z,12.77
2019-03-29T03:32:12.210Z,15.63
2019-03-29T03:37:19.707Z,14.27
2019-03-29T03:42:28.387Z,18.20
2019-03-29T03:47:34.946Z,16.70
2019-03-29T03:52:42.003Z,15.87
2019-03-29T03:57:50.027Z,17.20
2019-03-29T04:02:57.553Z,19.57
2019-03-29T04:08:05.679Z,14.30
2019-03-29T04:13:14.680Z,16.93
2019-03-29T04:18:22.398Z,17.33
2019-03-29T04:23:33.423Z,18.90
2019-03-29T04:28:42.613Z,18.27
2019-03-29T04:34:42.868Z,20.03
2019-03-29T04:40:06.257Z,19.93
2019-03-29T04:45:00.128Z,17.93
2019-03-29T04:50:12.623Z,17.83
2019-03-29T04:55:24.787Z,23.13
2019-03-29T05:01:05.068Z,17.20
2019-03-29T05:06:37.439Z,21.03
2019-03-29T05:12:41.894Z,23.33
2019-03-29T05:17:51.442Z,18.63
2019-03-29T05:22:59.168Z,22.23
2019-03-29T05:28:30.119Z,20.50
2019-03-29T05:33:39.276Z,21.03
2019-03-29T05:45:37.464Z,21.30
2019-03-29T05:50:45.515Z,19.33
2019-03-29T05:56:20.039Z,17.77
2019-03-29T06:02:13.658Z,19.17
2019-03-29T06:07:21.799Z,21.83
2019-03-29T06:12:29.589Z,18.07
2019-03-29T06:17:48.401Z,19.47
2019-03-29T06:22:54.790Z,17.57
2019-03-29T06:28:26.302Z,19.13
2019-03-29T06:33:34.002Z,18.93
2019-03-29T06:38:42.962Z,16.60
2019-03-29T06:43:49.667Z,18.30
2019-03-29T06:48:55.998Z,17.80
2019-03-29T06:54:03.189Z,16.70
2019-03-29T06:59:10.150Z,14.87
2019-03-29T07:04:35.596Z,14.70
2019-03-29T07:09:43.664Z,16.03
2019-03-29T07:14:51.138Z,15.40
2019-03-29T07:19:59.412Z,14.83
2019-03-29T07:25:06.696Z,13.07
2019-03-29T07:30:13.604Z,16.70
2019-03-29T07:35:20.255Z,16.80
2019-03-29T07:40:26.991Z,15.67
2019-03-29T07:45:33.334Z,15.13
2019-03-29T07:50:40.630Z,13.43
2019-03-29T07:55:47.989Z,15.03
2019-03-29T08:01:01.171Z,12.57
2019-03-29T08:06:07.767Z,15.50
2019-03-29T08:11:26.232Z,13.17
2019-03-29T08:16:37.063Z,12.17
2019-03-29T08:21:44.065Z,10.70
2019-03-29T08:26:52.831Z,13.90
2019-03-29T08:32:02.687Z,16.83
2019-03-29T08:37:10.260Z,16.23
2019-03-29T08:42:18.818Z,14.93
2019-03-29T08:47:25.891Z,12.90
2019-03-29T08:52:34.026Z,9.57
2019-03-29T08:58:01.437Z,15.70
2019-03-29T09:03:10.517Z,14.10
2019-03-29T09:08:19.535Z,10.77
2019-03-29T09:13:26.280Z,12.40
2019-03-29T09:18:33.806Z,9.47
2019-03-29T09:23:41.906Z,11.93
2019-03-29T09:28:48.635Z,9.67
2019-03-29T09:34:04.053Z,11.37
2019-03-29T09:39:13.049Z,14.20
2019-03-29T09:44:19.664Z,12.13
2019-03-29T09:49:28.520Z,11.88
2019-03-29T09:54:36.167Z,8.83
2019-03-29T09:59:45.054Z,19.00
2019-03-29T10:04:53.334Z,13.23
2019-03-29T10:10:00.753Z,11.33
2019-03-29T10:15:07.928Z,14.98
2019-03-29T10:20:15.140Z,12.85
2019-03-29T10:25:21.798Z,12.50
2019-03-29T10:30:46.533Z,11.17
2019-03-29T10:35:57.699Z,12.23
2019-03-29T10:41:08.014Z,11.78
2019-03-29T10:46:15.900Z,13.65
2019-03-29T10:51:30.517Z,15.70
2019-03-29T10:56:37.955Z,12.75
2019-03-29T11:01:49.431Z,6.15
2019-03-29T11:06:59.352Z,10.93
2019-03-29T11:12:48.278Z,12.82
2019-03-29T11:18:06.212Z,11.38
2019-03-29T11:23:14.013Z,11.55
2019-03-29T11:28:21.378Z,12.68
2019-03-29T11:33:37.806Z,11.57
2019-03-29T11:38:46.035Z,11.28
2019-03-29T11:44:06.602Z,8.25
2019-03-29T11:49:23.461Z,5.45
2019-03-29T11:54:33.568Z,10.10
2019-03-29T11:59:46.266Z,8.58
2019-03-29T12:04:54.792Z,11.85
2019-03-29T12:10:09.465Z,8.55
2019-03-29T12:15:15.932Z,7.58
2019-03-29T12:20:22.836Z,7.28
2019-03-29T12:25:30.712Z,6.53
2019-03-29T12:30:38.148Z,5.20
2019-03-29T12:35:45.851Z,7.22
2019-03-29T12:40:56.264Z,6.17
2019-03-29T12:46:04.591Z,6.00
2019-03-29T12:51:12.464Z,5.97
2019-03-29T12:56:23.584Z,6.78
2019-03-29T13:01:39.790Z,7.55
2019-03-29T13:06:44.078Z,7.58
2019-03-29T13:11:55.501Z,7.65
2019-03-29T13:17:03.576Z,7.65
2019-03-29T13:22:12.621Z,8.83
2019-03-29T13:27:20.745Z,9.75
2019-03-29T13:32:29.252Z,9.43
2019-03-29T13:39:05.077Z,7.72
2019-03-29T13:45:09.023Z,8.18
2019-03-29T13:50:17.311Z,9.88
2019-03-29T13:55:25.698Z,11.00
2019-03-29T14:00:32.561Z,9.23
2019-03-29T14:05:41.019Z,9.03
2019-03-29T14:10:49.680Z,9.45
2019-03-29T14:15:56.501Z,10.38
2019-03-29T14:21:03.841Z,9.88
2019-03-29T14:26:18.757Z,9.70
2019-03-29T14:31:25.165Z,10.70
2019-03-29T14:36:31.835Z,8.80
2019-03-29T14:41:39.025Z,8.80
2019-03-29T14:46:45.720Z,11.53
2019-03-29T14:51:53.630Z,12.05
2019-03-29T14:57:01.997Z,9.90
2019-03-29T15:02:10.288Z,11.53
2019-03-29T15:07:18.850Z,9.90
2019-03-29T15:12:32.698Z,7.72
2019-03-29T15:17:39.967Z,9.60
2019-03-29T15:23:08.549Z,5.78
2019-03-29T15:28:17.609Z,5.78
2019-03-29T15:33:26.386Z,5.55
2019-03-29T15:38:33.259Z,6.75
2019-03-29T15:43:40.718Z,5.67
2019-03-29T15:49:05.425Z,6.95
2019-03-29T15:55:02.318Z,7.20
2019-03-29T16:07:07.904Z,5.67
2019-03-29T16:12:15.319Z,5.00
2019-03-29T16:17:25.425Z,7.60
2019-03-29T16:22:33.708Z,8.90
2019-03-29T16:27:40.830Z,8.45
2019-03-29T16:32:47.947Z,10.05
2019-03-29T16:37:57.370Z,9.85
2019-03-29T16:43:04.044Z,8.53
2019-03-29T16:48:10.540Z,8.38
2019-03-29T16:53:18.539Z,13.48
2019-03-29T16:58:26.363Z,12.45
2019-03-29T17:03:35.419Z,12.82
2019-03-29T17:08:43.783Z,12.55
2019-03-29T17:13:51.805Z,11.88
2019-03-29T17:19:00.372Z,10.58
2019-03-29T17:24:07.053Z,11.65
2019-03-29T17:29:13.990Z,9.98
2019-03-29T17:34:20.776Z,13.30
2019-03-29T17:39:27.498Z,15.18
2019-03-29T17:44:34.228Z,10.28
2019-03-29T17:49:40.758Z,7.22
2019-03-29T17:54:47.928Z,6.75
2019-03-29T17:59:54.314Z,7.75
2019-03-29T18:05:04.778Z,5.70
2019-03-29T18:10:11.522Z,5.62
2019-03-29T18:15:18.237Z,5.03
2019-03-29T18:20:25.167Z,4.75
2019-03-29T18:25:32.389Z,6.17
2019-03-29T18:30:43.934Z,6.17
2019-03-29T18:35:53.802Z,5.92
2019-03-29T18:41:01.621Z,6.33
2019-03-29T18:46:09.336Z,6.35
2019-03-29T18:51:17.376Z,5.08
2019-03-29T18:56:25.070Z,6.92
2019-03-29T19:01:34.275Z,5.90
2019-03-29T19:06:41.797Z,4.90
2019-03-29T19:11:48.665Z,4.87
2019-03-29T19:16:59.166Z,4.53
2019-03-29T19:22:04.847Z,4.45
2019-03-29T19:27:11.726Z,5.67
2019-03-29T19:32:19.072Z,6.35
2019-03-29T19:37:25.605Z,7.22
2019-03-29T19:42:33.703Z,7.13
2019-03-29T19:47:41.448Z,9.10
2019-03-29T19:53:03.672Z,6.97
2019-03-29T19:58:21.211Z,6.17
2019-03-29T20:03:29.791Z,8.15
2019-03-29T20:08:37.474Z,8.47
2019-03-29T20:13:45.405Z,5.70
2019-03-29T20:18:53.857Z,5.47
2019-03-29T20:24:01.641Z,8.70
2019-03-29T20:29:08.329Z,9.47
2019-03-29T20:34:17.045Z,8.03
2019-03-29T20:39:25.005Z,8.00
2019-03-29T20:44:33.200Z,6.97
2019-03-29T20:49:40.004Z,9.13
2019-03-29T20:54:49.644Z,5.27
2019-03-29T21:00:00.438Z,7.67
2019-03-29T21:05:10.915Z,9.03
2019-03-29T21:10:18.109Z,6.60
2019-03-29T21:15:27.379Z,10.83
2019-03-29T21:20:35.841Z,6.77
2019-03-29T21:25:43.819Z,9.00
2019-03-29T21:30:52.271Z,5.53
2019-03-29T21:35:59.614Z,8.97
2019-03-29T21:41:06.398Z,9.43
2019-03-29T21:46:13.143Z,9.30
2019-03-29T21:51:20.397Z,12.50
2019-03-29T21:56:27.707Z,8.50
2019-03-29T22:01:36.234Z,10.03
2019-03-29T22:06:52.964Z,10.83
2019-03-29T22:12:15.635Z,13.30
2019-03-29T22:17:24.232Z,11.60
2019-03-29T22:22:33.646Z,11.87
2019-03-29T22:27:41.789Z,10.40
2019-03-29T22:32:49.828Z,11.00
2019-03-29T22:37:58.651Z,10.97
2019-03-29T22:43:17.616Z,8.23
2019-03-29T22:48:25.511Z,8.93
2019-03-29T22:53:33.152Z,9.30
2019-03-29T22:58:39.631Z,12.53
2019-03-29T23:03:47.819Z,15.10
2019-03-29T23:08:54.799Z,13.90
2019-03-29T23:14:03.023Z,17.33
2019-03-29T23:19:11.538Z,11.43
2019-03-29T23:24:19.282Z,11.77
2019-03-29T23:29:25.628Z,10.30
2019-03-29T23:34:34.269Z,11.23
2019-03-29T23:39:42.588Z,8.47
2019-03-29T23:44:49.745Z,12.67
2019-03-29T23:50:03.029Z,26.93
2019-03-29T23:55:10.859Z,16.17
